sensor_id;sensor_type;location;lat;lon;timestamp;P1;durP1;ratioP1;P2;durP2;ratioP2
52642;SDS011;38531;53.296;6.614;2022-12-07T00:01:09;2.88;;;0.50;;
52642;SDS011;38531;53.296;6.614;2022-12-07T00:03:39;0.75;;;0.20;;
52642;SDS011;38531;53.296;6.614;2022-12-07T00:06:08;0.68;;;0.38;;
52642;SDS011;38531;53.296;6.614;2022-12-07T00:08:35;0.80;;;0.30;;
52642;SDS011;38531;53.296;6.614;2022-12-07T00:11:05;0.50;;;0.30;;
52642;SDS011;38531;53.296;6.614;2022-12-07T00:13:34;0.45;;;0.20;;
52642;SDS011;38531;53.296;6.614;2022-12-07T00:16:08;0.88;;;0.28;;
52642;SDS011;38531;53.296;6.614;2022-12-07T00:18:36;0.68;;;0.30;;
52642;SDS011;38531;53.296;6.614;2022-12-07T00:21:03;1.75;;;0.20;;
52642;SDS011;38531;53.296;6.614;2022-12-07T00:23:30;0.63;;;0.20;;
52642;SDS011;38531;53.296;6.614;2022-12-07T00:26:02;1.35;;;0.30;;
52642;SDS011;38531;53.296;6.614;2022-12-07T00:31:17;1.73;;;0.10;;
52642;SDS011;38531;53.296;6.614;2022-12-07T00:36:17;0.95;;;0.30;;
52642;SDS011;38531;53.296;6.614;2022-12-07T00:38:44;0.93;;;0.28;;
52642;SDS011;38531;53.296;6.614;2022-12-07T00:41:11;1.75;;;0.40;;
52642;SDS011;38531;53.296;6.614;2022-12-07T00:43:43;1.13;;;0.30;;
52642;SDS011;38531;53.296;6.614;2022-12-07T00:46:09;12.40;;;0.82;;
52642;SDS011;38531;53.296;6.614;2022-12-07T00:48:36;3.70;;;0.40;;
52642;SDS011;38531;53.296;6.614;2022-12-07T00:51:02;3.95;;;0.40;;
52642;SDS011;38531;53.296;6.614;2022-12-07T00:53:28;5.18;;;0.60;;
52642;SDS011;38531;53.296;6.614;2022-12-07T00:55:54;2.20;;;0.30;;
52642;SDS011;38531;53.296;6.614;2022-12-07T00:58:21;6.60;;;0.40;;
52642;SDS011;38531;53.296;6.614;2022-12-07T01:00:48;6.28;;;0.52;;
52642;SDS011;38531;53.296;6.614;2022-12-07T01:03:14;3.67;;;0.68;;
52642;SDS011;38531;53.296;6.614;2022-12-07T01:05:48;5.97;;;0.57;;
52642;SDS011;38531;53.296;6.614;2022-12-07T01:08:18;5.35;;;0.47;;
52642;SDS011;38531;53.296;6.614;2022-12-07T01:10:44;3.30;;;0.73;;
52642;SDS011;38531;53.296;6.614;2022-12-07T01:13:10;3.55;;;0.50;;
52642;SDS011;38531;53.296;6.614;2022-12-07T01:15:42;2.20;;;0.57;;
52642;SDS011;38531;53.296;6.614;2022-12-07T01:18:11;2.00;;;0.50;;
52642;SDS011;38531;53.296;6.614;2022-12-07T01:20:37;3.53;;;0.30;;
52642;SDS011;38531;53.296;6.614;2022-12-07T01:23:03;1.65;;;0.20;;
52642;SDS011;38531;53.296;6.614;2022-12-07T01:25:29;2.15;;;0.60;;
52642;SDS011;38531;53.296;6.614;2022-12-07T01:27:54;1.70;;;0.38;;
52642;SDS011;38531;53.296;6.614;2022-12-07T01:30:20;0.80;;;0.20;;
52642;SDS011;38531;53.296;6.614;2022-12-07T01:32:48;1.33;;;0.28;;
52642;SDS011;38531;53.296;6.614;2022-12-07T01:35:14;9.93;;;0.60;;
52642;SDS011;38531;53.296;6.614;2022-12-07T01:37:40;5.72;;;0.60;;
52642;SDS011;38531;53.296;6.614;2022-12-07T01:40:06;8.32;;;0.50;;
52642;SDS011;38531;53.296;6.614;2022-12-07T01:42:33;1.77;;;0.45;;
52642;SDS011;38531;53.296;6.614;2022-12-07T01:47:44;4.70;;;0.50;;
52642;SDS011;38531;53.296;6.614;2022-12-07T01:50:13;1.60;;;0.32;;
52642;SDS011;38531;53.296;6.614;2022-12-07T01:52:39;4.55;;;0.50;;
52642;SDS011;38531;53.296;6.614;2022-12-07T01:55:10;2.70;;;0.30;;
52642;SDS011;38531;53.296;6.614;2022-12-07T01:57:40;1.45;;;0.30;;
52642;SDS011;38531;53.296;6.614;2022-12-07T02:00:12;0.38;;;0.10;;
52642;SDS011;38531;53.296;6.614;2022-12-07T02:02:41;0.68;;;0.20;;
52642;SDS011;38531;53.296;6.614;2022-12-07T02:05:15;0.32;;;0.10;;
52642;SDS011;38531;53.296;6.614;2022-12-07T02:07:42;6.53;;;0.28;;
52642;SDS011;38531;53.296;6.614;2022-12-07T02:10:25;1.00;;;0.20;;
52642;SDS011;38531;53.296;6.614;2022-12-07T02:13:02;0.82;;;0.20;;
52642;SDS011;38531;53.296;6.614;2022-12-07T02:21:30;2.00;;;0.60;;
52642;SDS011;38531;53.296;6.614;2022-12-07T02:26:44;0.70;;;0.17;;
52642;SDS011;38531;53.296;6.614;2022-12-07T02:29:21;0.22;;;0.20;;
52642;SDS011;38531;53.296;6.614;2022-12-07T02:37:29;1.55;;;0.20;;
52642;SDS011;38531;53.296;6.614;2022-12-07T02:43:00;0.20;;;0.20;;
52642;SDS011;38531;53.296;6.614;2022-12-07T02:45:36;0.15;;;0.15;;
52642;SDS011;38531;53.296;6.614;2022-12-07T02:48:05;2.10;;;0.20;;
52642;SDS011;38531;53.296;6.614;2022-12-07T02:50:33;0.20;;;0.20;;
52642;SDS011;38531;53.296;6.614;2022-12-07T02:52:59;2.45;;;0.20;;
52642;SDS011;38531;53.296;6.614;2022-12-07T02:55:30;0.20;;;0.20;;
52642;SDS011;38531;53.296;6.614;2022-12-07T03:01:11;1.95;;;0.20;;
52642;SDS011;38531;53.296;6.614;2022-12-07T03:03:52;3.85;;;0.43;;
52642;SDS011;38531;53.296;6.614;2022-12-07T03:06:31;2.78;;;0.40;;
52642;SDS011;38531;53.296;6.614;2022-12-07T03:09:05;1.75;;;0.25;;
52642;SDS011;38531;53.296;6.614;2022-12-07T03:11:42;0.32;;;0.20;;
52642;SDS011;38531;53.296;6.614;2022-12-07T03:14:30;3.70;;;0.75;;
52642;SDS011;38531;53.296;6.614;2022-12-07T03:17:20;0.55;;;0.28;;
52642;SDS011;38531;53.296;6.614;2022-12-07T03:19:49;3.45;;;0.45;;
52642;SDS011;38531;53.296;6.614;2022-12-07T03:22:20;0.73;;;0.38;;
52642;SDS011;38531;53.296;6.614;2022-12-07T03:24:50;4.70;;;0.28;;
52642;SDS011;38531;53.296;6.614;2022-12-07T03:27:20;4.18;;;0.50;;
52642;SDS011;38531;53.296;6.614;2022-12-07T03:29:49;2.25;;;0.40;;
52642;SDS011;38531;53.296;6.614;2022-12-07T03:32:21;1.45;;;0.30;;
52642;SDS011;38531;53.296;6.614;2022-12-07T03:34:58;2.83;;;0.38;;
52642;SDS011;38531;53.296;6.614;2022-12-07T03:37:39;0.93;;;0.20;;
52642;SDS011;38531;53.296;6.614;2022-12-07T03:40:28;3.70;;;0.50;;
52642;SDS011;38531;53.296;6.614;2022-12-07T03:43:02;0.65;;;0.22;;
52642;SDS011;38531;53.296;6.614;2022-12-07T03:45:32;3.55;;;0.30;;
52642;SDS011;38531;53.296;6.614;2022-12-07T03:51:03;0.30;;;0.20;;
52642;SDS011;38531;53.296;6.614;2022-12-07T03:53:54;3.63;;;0.35;;
52642;SDS011;38531;53.296;6.614;2022-12-07T03:56:30;2.60;;;0.30;;
52642;SDS011;38531;53.296;6.614;2022-12-07T03:58:57;6.72;;;0.40;;
52642;SDS011;38531;53.296;6.614;2022-12-07T04:01:23;1.70;;;0.30;;
52642;SDS011;38531;53.296;6.614;2022-12-07T04:03:49;4.63;;;0.30;;
52642;SDS011;38531;53.296;6.614;2022-12-07T04:06:15;1.95;;;0.40;;
52642;SDS011;38531;53.296;6.614;2022-12-07T04:08:41;9.77;;;0.52;;
52642;SDS011;38531;53.296;6.614;2022-12-07T04:11:07;3.65;;;0.40;;
52642;SDS011;38531;53.296;6.614;2022-12-07T04:13:32;3.10;;;0.30;;
52642;SDS011;38531;53.296;6.614;2022-12-07T04:16:18;4.20;;;0.40;;
52642;SDS011;38531;53.296;6.614;2022-12-07T04:18:43;2.40;;;0.30;;
52642;SDS011;38531;53.296;6.614;2022-12-07T04:21:09;3.90;;;0.40;;
52642;SDS011;38531;53.296;6.614;2022-12-07T04:23:35;3.83;;;0.40;;
52642;SDS011;38531;53.296;6.614;2022-12-07T04:26:01;2.00;;;0.50;;
52642;SDS011;38531;53.296;6.614;2022-12-07T04:28:26;2.42;;;0.35;;
52642;SDS011;38531;53.296;6.614;2022-12-07T04:30:54;5.35;;;0.70;;
52642;SDS011;38531;53.296;6.614;2022-12-07T04:33:20;3.47;;;0.35;;
52642;SDS011;38531;53.296;6.614;2022-12-07T04:35:46;3.58;;;0.47;;
52642;SDS011;38531;53.296;6.614;2022-12-07T04:38:12;1.20;;;0.25;;
52642;SDS011;38531;53.296;6.614;2022-12-07T04:40:37;3.85;;;0.40;;
52642;SDS011;38531;53.296;6.614;2022-12-07T04:43:03;1.73;;;0.20;;
52642;SDS011;38531;53.296;6.614;2022-12-07T04:45:29;1.70;;;0.25;;
52642;SDS011;38531;53.296;6.614;2022-12-07T04:47:55;1.27;;;0.30;;
52642;SDS011;38531;53.296;6.614;2022-12-07T04:50:21;2.42;;;0.50;;
52642;SDS011;38531;53.296;6.614;2022-12-07T04:52:47;0.20;;;0.20;;
52642;SDS011;38531;53.296;6.614;2022-12-07T04:55:12;2.28;;;0.20;;
52642;SDS011;38531;53.296;6.614;2022-12-07T04:57:38;1.02;;;0.20;;
52642;SDS011;38531;53.296;6.614;2022-12-07T05:00:04;0.20;;;0.20;;
52642;SDS011;38531;53.296;6.614;2022-12-07T05:02:30;3.80;;;0.57;;
52642;SDS011;38531;53.296;6.614;2022-12-07T05:04:56;1.35;;;0.30;;
52642;SDS011;38531;53.296;6.614;2022-12-07T05:07:21;2.08;;;0.20;;
52642;SDS011;38531;53.296;6.614;2022-12-07T05:09:47;3.78;;;0.25;;
52642;SDS011;38531;53.296;6.614;2022-12-07T05:12:13;1.15;;;0.20;;
52642;SDS011;38531;53.296;6.614;2022-12-07T05:14:38;2.20;;;0.25;;
52642;SDS011;38531;53.296;6.614;2022-12-07T05:17:04;0.20;;;0.20;;
52642;SDS011;38531;53.296;6.614;2022-12-07T05:19:32;0.70;;;0.20;;
52642;SDS011;38531;53.296;6.614;2022-12-07T05:21:58;1.80;;;0.22;;
52642;SDS011;38531;53.296;6.614;2022-12-07T05:24:23;0.22;;;0.10;;
52642;SDS011;38531;53.296;6.614;2022-12-07T05:26:49;6.55;;;0.20;;
52642;SDS011;38531;53.296;6.614;2022-12-07T05:29:15;0.20;;;0.20;;
52642;SDS011;38531;53.296;6.614;2022-12-07T05:31:42;0.10;;;0.10;;
52642;SDS011;38531;53.296;6.614;2022-12-07T05:34:10;1.55;;;0.20;;
52642;SDS011;38531;53.296;6.614;2022-12-07T05:36:36;3.30;;;0.30;;
52642;SDS011;38531;53.296;6.614;2022-12-07T05:39:02;0.50;;;0.20;;
52642;SDS011;38531;53.296;6.614;2022-12-07T05:41:28;1.23;;;0.20;;
52642;SDS011;38531;53.296;6.614;2022-12-07T05:44:12;0.20;;;0.20;;
52642;SDS011;38531;53.296;6.614;2022-12-07T05:46:38;0.25;;;0.20;;
52642;SDS011;38531;53.296;6.614;2022-12-07T05:49:03;2.58;;;0.20;;
52642;SDS011;38531;53.296;6.614;2022-12-07T05:51:29;3.83;;;0.30;;
52642;SDS011;38531;53.296;6.614;2022-12-07T05:53:55;3.72;;;0.20;;
52642;SDS011;38531;53.296;6.614;2022-12-07T05:56:21;1.25;;;0.20;;
52642;SDS011;38531;53.296;6.614;2022-12-07T05:58:48;0.10;;;0.10;;
52642;SDS011;38531;53.296;6.614;2022-12-07T06:01:32;0.28;;;0.20;;
52642;SDS011;38531;53.296;6.614;2022-12-07T06:03:58;0.45;;;0.20;;
52642;SDS011;38531;53.296;6.614;2022-12-07T06:06:24;0.95;;;0.20;;
52642;SDS011;38531;53.296;6.614;2022-12-07T06:08:49;8.73;;;0.43;;
52642;SDS011;38531;53.296;6.614;2022-12-07T06:11:15;4.07;;;0.50;;
52642;SDS011;38531;53.296;6.614;2022-12-07T06:13:59;4.85;;;0.50;;
52642;SDS011;38531;53.296;6.614;2022-12-07T06:16:25;1.67;;;0.40;;
52642;SDS011;38531;53.296;6.614;2022-12-07T06:18:51;3.75;;;0.57;;
52642;SDS011;38531;53.296;6.614;2022-12-07T06:21:16;6.18;;;0.70;;
52642;SDS011;38531;53.296;6.614;2022-12-07T06:23:42;5.10;;;0.50;;
52642;SDS011;38531;53.296;6.614;2022-12-07T06:26:08;4.88;;;0.63;;
52642;SDS011;38531;53.296;6.614;2022-12-07T06:28:33;4.38;;;0.35;;
52642;SDS011;38531;53.296;6.614;2022-12-07T06:31:00;2.33;;;0.30;;
52642;SDS011;38531;53.296;6.614;2022-12-07T06:33:27;10.68;;;0.50;;
52642;SDS011;38531;53.296;6.614;2022-12-07T06:35:53;6.07;;;0.75;;
52642;SDS011;38531;53.296;6.614;2022-12-07T06:38:19;4.43;;;0.57;;
52642;SDS011;38531;53.296;6.614;2022-12-07T06:40:45;3.47;;;0.43;;
52642;SDS011;38531;53.296;6.614;2022-12-07T06:43:10;0.85;;;0.30;;
52642;SDS011;38531;53.296;6.614;2022-12-07T06:45:36;0.75;;;0.20;;
52642;SDS011;38531;53.296;6.614;2022-12-07T06:48:02;0.75;;;0.22;;
52642;SDS011;38531;53.296;6.614;2022-12-07T06:50:28;1.73;;;0.40;;
52642;SDS011;38531;53.296;6.614;2022-12-07T06:52:53;1.20;;;0.30;;
52642;SDS011;38531;53.296;6.614;2022-12-07T06:55:19;3.05;;;0.50;;
52642;SDS011;38531;53.296;6.614;2022-12-07T06:57:45;0.82;;;0.45;;
52642;SDS011;38531;53.296;6.614;2022-12-07T07:00:11;2.10;;;0.60;;
52642;SDS011;38531;53.296;6.614;2022-12-07T07:02:37;2.40;;;0.50;;
52642;SDS011;38531;53.296;6.614;2022-12-07T07:05:03;7.50;;;0.70;;
52642;SDS011;38531;53.296;6.614;2022-12-07T07:07:29;6.30;;;0.68;;
52642;SDS011;38531;53.296;6.614;2022-12-07T07:09:54;8.50;;;0.70;;
52642;SDS011;38531;53.296;6.614;2022-12-07T07:12:20;2.92;;;0.65;;
52642;SDS011;38531;53.296;6.614;2022-12-07T07:14:46;1.83;;;0.43;;
52642;SDS011;38531;53.296;6.614;2022-12-07T07:17:12;2.88;;;0.40;;
52642;SDS011;38531;53.296;6.614;2022-12-07T07:19:37;6.57;;;0.70;;
52642;SDS011;38531;53.296;6.614;2022-12-07T07:22:04;4.43;;;0.57;;
52642;SDS011;38531;53.296;6.614;2022-12-07T07:24:29;4.20;;;0.85;;
52642;SDS011;38531;53.296;6.614;2022-12-07T07:26:55;2.22;;;0.30;;
52642;SDS011;38531;53.296;6.614;2022-12-07T07:29:21;4.32;;;0.50;;
52642;SDS011;38531;53.296;6.614;2022-12-07T07:31:47;5.13;;;0.50;;
52642;SDS011;38531;53.296;6.614;2022-12-07T07:34:12;3.65;;;0.60;;
52642;SDS011;38531;53.296;6.614;2022-12-07T07:36:41;3.28;;;0.50;;
52642;SDS011;38531;53.296;6.614;2022-12-07T07:39:11;8.50;;;0.90;;
52642;SDS011;38531;53.296;6.614;2022-12-07T07:41:39;6.70;;;0.45;;
52642;SDS011;38531;53.296;6.614;2022-12-07T07:44:20;7.68;;;0.57;;
52642;SDS011;38531;53.296;6.614;2022-12-07T07:49:18;5.18;;;0.43;;
52642;SDS011;38531;53.296;6.614;2022-12-07T07:51:51;5.65;;;0.70;;
52642;SDS011;38531;53.296;6.614;2022-12-07T07:54:19;3.05;;;0.47;;
52642;SDS011;38531;53.296;6.614;2022-12-07T07:56:48;5.95;;;0.52;;
52642;SDS011;38531;53.296;6.614;2022-12-07T07:59:15;1.70;;;0.30;;
52642;SDS011;38531;53.296;6.614;2022-12-07T08:01:44;2.80;;;0.32;;
52642;SDS011;38531;53.296;6.614;2022-12-07T08:04:09;1.17;;;0.20;;
52642;SDS011;38531;53.296;6.614;2022-12-07T08:06:44;0.88;;;0.30;;
52642;SDS011;38531;53.296;6.614;2022-12-07T08:09:10;2.35;;;0.68;;
52642;SDS011;38531;53.296;6.614;2022-12-07T08:11:38;1.58;;;0.20;;
52642;SDS011;38531;53.296;6.614;2022-12-07T08:14:04;0.47;;;0.20;;
52642;SDS011;38531;53.296;6.614;2022-12-07T08:16:30;0.30;;;0.20;;
52642;SDS011;38531;53.296;6.614;2022-12-07T08:18:55;1.55;;;0.30;;
52642;SDS011;38531;53.296;6.614;2022-12-07T08:21:21;1.35;;;0.20;;
52642;SDS011;38531;53.296;6.614;2022-12-07T08:23:47;1.35;;;0.40;;
52642;SDS011;38531;53.296;6.614;2022-12-07T08:26:14;1.33;;;0.30;;
52642;SDS011;38531;53.296;6.614;2022-12-07T08:28:41;3.30;;;0.70;;
52642;SDS011;38531;53.296;6.614;2022-12-07T08:31:11;4.05;;;0.63;;
52642;SDS011;38531;53.296;6.614;2022-12-07T08:33:38;4.47;;;0.68;;
52642;SDS011;38531;53.296;6.614;2022-12-07T08:36:06;6.93;;;0.65;;
52642;SDS011;38531;53.296;6.614;2022-12-07T08:38:34;5.15;;;0.98;;
52642;SDS011;38531;53.296;6.614;2022-12-07T08:41:00;3.10;;;0.45;;
52642;SDS011;38531;53.296;6.614;2022-12-07T08:43:26;1.42;;;0.50;;
52642;SDS011;38531;53.296;6.614;2022-12-07T08:48:46;5.97;;;0.50;;
52642;SDS011;38531;53.296;6.614;2022-12-07T08:51:14;5.82;;;0.45;;
52642;SDS011;38531;53.296;6.614;2022-12-07T08:53:40;2.45;;;0.40;;
52642;SDS011;38531;53.296;6.614;2022-12-07T08:56:07;4.50;;;0.35;;
52642;SDS011;38531;53.296;6.614;2022-12-07T08:58:34;5.32;;;0.47;;
52642;SDS011;38531;53.296;6.614;2022-12-07T09:01:01;4.57;;;0.50;;
52642;SDS011;38531;53.296;6.614;2022-12-07T09:03:27;7.97;;;0.90;;
52642;SDS011;38531;53.296;6.614;2022-12-07T09:05:53;3.05;;;0.82;;
52642;SDS011;38531;53.296;6.614;2022-12-07T09:08:19;2.28;;;0.50;;
52642;SDS011;38531;53.296;6.614;2022-12-07T09:10:47;0.57;;;0.30;;
52642;SDS011;38531;53.296;6.614;2022-12-07T09:13:13;8.10;;;0.63;;
52642;SDS011;38531;53.296;6.614;2022-12-07T09:15:38;8.75;;;0.77;;
52642;SDS011;38531;53.296;6.614;2022-12-07T09:18:04;5.47;;;0.60;;
52642;SDS011;38531;53.296;6.614;2022-12-07T09:20:30;4.60;;;1.02;;
52642;SDS011;38531;53.296;6.614;2022-12-07T09:22:56;4.53;;;1.20;;
52642;SDS011;38531;53.296;6.614;2022-12-07T09:25:21;12.20;;;1.85;;
52642;SDS011;38531;53.296;6.614;2022-12-07T09:27:47;4.97;;;1.05;;
52642;SDS011;38531;53.296;6.614;2022-12-07T09:30:13;6.18;;;0.70;;
52642;SDS011;38531;53.296;6.614;2022-12-07T09:32:39;2.92;;;0.50;;
52642;SDS011;38531;53.296;6.614;2022-12-07T09:35:04;3.25;;;0.52;;
52642;SDS011;38531;53.296;6.614;2022-12-07T09:37:30;1.35;;;0.35;;
52642;SDS011;38531;53.296;6.614;2022-12-07T09:40:00;0.93;;;0.32;;
52642;SDS011;38531;53.296;6.614;2022-12-07T09:42:34;5.38;;;0.30;;
52642;SDS011;38531;53.296;6.614;2022-12-07T09:45:02;3.80;;;0.40;;
52642;SDS011;38531;53.296;6.614;2022-12-07T09:47:32;4.18;;;0.60;;
52642;SDS011;38531;53.296;6.614;2022-12-07T09:50:07;1.90;;;0.45;;
52642;SDS011;38531;53.296;6.614;2022-12-07T09:52:38;12.18;;;0.75;;
52642;SDS011;38531;53.296;6.614;2022-12-07T09:55:09;3.92;;;0.50;;
52642;SDS011;38531;53.296;6.614;2022-12-07T09:57:37;4.00;;;0.30;;
52642;SDS011;38531;53.296;6.614;2022-12-07T10:00:04;3.25;;;0.38;;
52642;SDS011;38531;53.296;6.614;2022-12-07T10:02:40;1.33;;;0.40;;
52642;SDS011;38531;53.296;6.614;2022-12-07T10:05:16;6.95;;;0.70;;
52642;SDS011;38531;53.296;6.614;2022-12-07T10:07:46;3.03;;;0.90;;
52642;SDS011;38531;53.296;6.614;2022-12-07T10:10:14;4.47;;;0.50;;
52642;SDS011;38531;53.296;6.614;2022-12-07T10:12:53;7.20;;;0.60;;
52642;SDS011;38531;53.296;6.614;2022-12-07T10:15:22;7.60;;;0.50;;
52642;SDS011;38531;53.296;6.614;2022-12-07T10:17:48;2.63;;;0.40;;
52642;SDS011;38531;53.296;6.614;2022-12-07T10:20:22;6.97;;;0.40;;
52642;SDS011;38531;53.296;6.614;2022-12-07T10:22:53;2.72;;;0.50;;
52642;SDS011;38531;53.296;6.614;2022-12-07T10:25:28;2.28;;;0.25;;
52642;SDS011;38531;53.296;6.614;2022-12-07T10:27:58;6.60;;;0.32;;
52642;SDS011;38531;53.296;6.614;2022-12-07T10:30:27;2.20;;;0.30;;
52642;SDS011;38531;53.296;6.614;2022-12-07T10:32:52;5.72;;;0.55;;
52642;SDS011;38531;53.296;6.614;2022-12-07T10:35:20;4.53;;;0.45;;
52642;SDS011;38531;53.296;6.614;2022-12-07T10:37:49;7.93;;;0.73;;
52642;SDS011;38531;53.296;6.614;2022-12-07T10:40:24;7.38;;;0.60;;
52642;SDS011;38531;53.296;6.614;2022-12-07T10:43:03;5.25;;;0.57;;
52642;SDS011;38531;53.296;6.614;2022-12-07T10:45:43;3.85;;;0.30;;
52642;SDS011;38531;53.296;6.614;2022-12-07T10:48:39;1.85;;;0.40;;
52642;SDS011;38531;53.296;6.614;2022-12-07T10:51:22;2.75;;;0.50;;
52642;SDS011;38531;53.296;6.614;2022-12-07T10:59:18;1.95;;;0.45;;
52642;SDS011;38531;53.296;6.614;2022-12-07T11:10:19;0.32;;;0.30;;
52642;SDS011;38531;53.296;6.614;2022-12-07T11:37:40;0.98;;;0.20;;
52642;SDS011;38531;53.296;6.614;2022-12-07T11:42:53;1.08;;;0.30;;
52642;SDS011;38531;53.296;6.614;2022-12-07T11:45:27;3.28;;;0.30;;
52642;SDS011;38531;53.296;6.614;2022-12-07T11:48:14;1.20;;;0.30;;
52642;SDS011;38531;53.296;6.614;2022-12-07T11:50:54;0.55;;;0.20;;
52642;SDS011;38531;53.296;6.614;2022-12-07T11:56:12;3.20;;;0.30;;
52642;SDS011;38531;53.296;6.614;2022-12-07T12:03:52;4.50;;;0.40;;
52642;SDS011;38531;53.296;6.614;2022-12-07T12:06:31;2.50;;;0.20;;
52642;SDS011;38531;53.296;6.614;2022-12-07T12:09:16;5.13;;;0.50;;
52642;SDS011;38531;53.296;6.614;2022-12-07T12:20:21;3.92;;;0.60;;
52642;SDS011;38531;53.296;6.614;2022-12-07T12:22:58;2.15;;;0.50;;
52642;SDS011;38531;53.296;6.614;2022-12-07T12:25:34;3.10;;;0.40;;
52642;SDS011;38531;53.296;6.614;2022-12-07T12:28:04;1.02;;;0.30;;
52642;SDS011;38531;53.296;6.614;2022-12-07T12:33:01;4.03;;;0.57;;
52642;SDS011;38531;53.296;6.614;2022-12-07T12:35:38;6.75;;;0.47;;
52642;SDS011;38531;53.296;6.614;2022-12-07T12:40:50;5.15;;;1.27;;
52642;SDS011;38531;53.296;6.614;2022-12-07T12:43:39;4.65;;;0.40;;
52642;SDS011;38531;53.296;6.614;2022-12-07T12:51:57;1.50;;;0.32;;
52642;SDS011;38531;53.296;6.614;2022-12-07T12:54:29;1.10;;;0.47;;
52642;SDS011;38531;53.296;6.614;2022-12-07T13:05:00;1.90;;;0.25;;
52642;SDS011;38531;53.296;6.614;2022-12-07T13:12:57;1.45;;;0.45;;
52642;SDS011;38531;53.296;6.614;2022-12-07T13:15:37;2.30;;;0.40;;
52642;SDS011;38531;53.296;6.614;2022-12-07T13:18:25;5.28;;;0.70;;
52642;SDS011;38531;53.296;6.614;2022-12-07T13:20:58;1.38;;;0.20;;
52642;SDS011;38531;53.296;6.614;2022-12-07T13:26:17;2.30;;;0.30;;
52642;SDS011;38531;53.296;6.614;2022-12-07T13:33:57;3.22;;;1.10;;
52642;SDS011;38531;53.296;6.614;2022-12-07T13:36:27;3.28;;;0.65;;
52642;SDS011;38531;53.296;6.614;2022-12-07T13:39:10;1.88;;;0.50;;
52642;SDS011;38531;53.296;6.614;2022-12-07T13:41:41;0.52;;;0.22;;
52642;SDS011;38531;53.296;6.614;2022-12-07T13:44:09;1.27;;;0.20;;
52642;SDS011;38531;53.296;6.614;2022-12-07T13:49:17;0.40;;;0.20;;
52642;SDS011;38531;53.296;6.614;2022-12-07T13:51:43;1.98;;;0.30;;
52642;SDS011;38531;53.296;6.614;2022-12-07T13:54:12;1.65;;;0.28;;
52642;SDS011;38531;53.296;6.614;2022-12-07T13:59:20;0.85;;;0.20;;
52642;SDS011;38531;53.296;6.614;2022-12-07T14:01:48;0.43;;;0.20;;
52642;SDS011;38531;53.296;6.614;2022-12-07T14:07:01;2.13;;;0.35;;
52642;SDS011;38531;53.296;6.614;2022-12-07T14:12:24;0.28;;;0.20;;
52642;SDS011;38531;53.296;6.614;2022-12-07T14:14:51;3.03;;;0.40;;
52642;SDS011;38531;53.296;6.614;2022-12-07T14:17:20;1.08;;;0.20;;
52642;SDS011;38531;53.296;6.614;2022-12-07T14:19:51;0.98;;;0.30;;
52642;SDS011;38531;53.296;6.614;2022-12-07T14:25:14;2.15;;;0.30;;
52642;SDS011;38531;53.296;6.614;2022-12-07T14:27:59;0.55;;;0.32;;
52642;SDS011;38531;53.296;6.614;2022-12-07T14:30:27;0.57;;;0.40;;
52642;SDS011;38531;53.296;6.614;2022-12-07T14:32:59;2.80;;;0.60;;
52642;SDS011;38531;53.296;6.614;2022-12-07T14:35:26;1.70;;;0.30;;
52642;SDS011;38531;53.296;6.614;2022-12-07T14:37:52;1.48;;;0.28;;
52642;SDS011;38531;53.296;6.614;2022-12-07T14:40:19;2.50;;;0.30;;
52642;SDS011;38531;53.296;6.614;2022-12-07T14:42:47;2.22;;;0.22;;
52642;SDS011;38531;53.296;6.614;2022-12-07T14:45:17;2.00;;;0.30;;
52642;SDS011;38531;53.296;6.614;2022-12-07T14:47:45;2.85;;;0.30;;
52642;SDS011;38531;53.296;6.614;2022-12-07T14:50:14;1.80;;;0.30;;
52642;SDS011;38531;53.296;6.614;2022-12-07T14:52:42;1.58;;;0.30;;
52642;SDS011;38531;53.296;6.614;2022-12-07T14:55:14;0.75;;;0.25;;
52642;SDS011;38531;53.296;6.614;2022-12-07T14:57:54;1.38;;;0.32;;
52642;SDS011;38531;53.296;6.614;2022-12-07T15:00:21;2.40;;;0.20;;
52642;SDS011;38531;53.296;6.614;2022-12-07T15:02:49;0.30;;;0.30;;
52642;SDS011;38531;53.296;6.614;2022-12-07T15:05:15;1.52;;;0.50;;
52642;SDS011;38531;53.296;6.614;2022-12-07T15:07:41;3.08;;;0.75;;
52642;SDS011;38531;53.296;6.614;2022-12-07T15:10:15;4.03;;;0.45;;
52642;SDS011;38531;53.296;6.614;2022-12-07T15:12:44;3.28;;;0.70;;
52642;SDS011;38531;53.296;6.614;2022-12-07T15:15:10;7.13;;;1.20;;
52642;SDS011;38531;53.296;6.614;2022-12-07T15:17:35;2.65;;;1.02;;
52642;SDS011;38531;53.296;6.614;2022-12-07T15:20:01;5.43;;;0.98;;
52642;SDS011;38531;53.296;6.614;2022-12-07T15:22:28;4.78;;;0.73;;
52642;SDS011;38531;53.296;6.614;2022-12-07T15:24:56;3.00;;;0.70;;
52642;SDS011;38531;53.296;6.614;2022-12-07T15:27:22;3.42;;;0.60;;
52642;SDS011;38531;53.296;6.614;2022-12-07T15:29:48;1.48;;;0.50;;
52642;SDS011;38531;53.296;6.614;2022-12-07T15:32:13;2.60;;;0.50;;
52642;SDS011;38531;53.296;6.614;2022-12-07T15:34:39;1.40;;;0.40;;
52642;SDS011;38531;53.296;6.614;2022-12-07T15:37:05;1.52;;;0.40;;
52642;SDS011;38531;53.296;6.614;2022-12-07T15:39:31;1.00;;;0.40;;
52642;SDS011;38531;53.296;6.614;2022-12-07T15:41:57;0.90;;;0.50;;
52642;SDS011;38531;53.296;6.614;2022-12-07T15:44:23;1.30;;;0.30;;
52642;SDS011;38531;53.296;6.614;2022-12-07T15:47:07;2.03;;;0.82;;
52642;SDS011;38531;53.296;6.614;2022-12-07T15:49:32;0.90;;;0.38;;
52642;SDS011;38531;53.296;6.614;2022-12-07T15:51:58;3.58;;;0.50;;
52642;SDS011;38531;53.296;6.614;2022-12-07T15:54:25;3.70;;;0.57;;
52642;SDS011;38531;53.296;6.614;2022-12-07T15:56:52;1.75;;;0.70;;
52642;SDS011;38531;53.296;6.614;2022-12-07T15:59:18;2.08;;;0.90;;
52642;SDS011;38531;53.296;6.614;2022-12-07T16:01:44;2.75;;;1.20;;
52642;SDS011;38531;53.296;6.614;2022-12-07T16:04:10;6.53;;;1.48;;
52642;SDS011;38531;53.296;6.614;2022-12-07T16:06:36;2.22;;;1.00;;
52642;SDS011;38531;53.296;6.614;2022-12-07T16:09:02;4.57;;;0.90;;
52642;SDS011;38531;53.296;6.614;2022-12-07T16:11:28;3.25;;;0.90;;
52642;SDS011;38531;53.296;6.614;2022-12-07T16:13:54;1.42;;;0.60;;
52642;SDS011;38531;53.296;6.614;2022-12-07T16:16:19;2.05;;;0.50;;
52642;SDS011;38531;53.296;6.614;2022-12-07T16:18:50;0.90;;;0.45;;
52642;SDS011;38531;53.296;6.614;2022-12-07T16:21:16;2.50;;;0.50;;
52642;SDS011;38531;53.296;6.614;2022-12-07T16:23:43;0.47;;;0.30;;
52642;SDS011;38531;53.296;6.614;2022-12-07T16:26:13;0.90;;;0.30;;
52642;SDS011;38531;53.296;6.614;2022-12-07T16:28:48;2.58;;;0.73;;
52642;SDS011;38531;53.296;6.614;2022-12-07T16:31:16;0.60;;;0.40;;
52642;SDS011;38531;53.296;6.614;2022-12-07T16:33:43;1.70;;;0.50;;
52642;SDS011;38531;53.296;6.614;2022-12-07T16:36:10;0.60;;;0.45;;
52642;SDS011;38531;53.296;6.614;2022-12-07T16:38:43;0.63;;;0.40;;
52642;SDS011;38531;53.296;6.614;2022-12-07T16:41:09;1.60;;;0.40;;
52642;SDS011;38531;53.296;6.614;2022-12-07T16:43:36;0.88;;;0.45;;
52642;SDS011;38531;53.296;6.614;2022-12-07T16:46:02;1.88;;;0.70;;
52642;SDS011;38531;53.296;6.614;2022-12-07T16:48:28;4.13;;;1.38;;
52642;SDS011;38531;53.296;6.614;2022-12-07T16:50:54;2.03;;;1.08;;
52642;SDS011;38531;53.296;6.614;2022-12-07T16:53:20;3.53;;;0.63;;
52642;SDS011;38531;53.296;6.614;2022-12-07T16:55:48;2.17;;;0.75;;
52642;SDS011;38531;53.296;6.614;2022-12-07T16:58:15;2.40;;;0.60;;
52642;SDS011;38531;53.296;6.614;2022-12-07T17:00:46;5.97;;;1.35;;
52642;SDS011;38531;53.296;6.614;2022-12-07T17:03:13;2.78;;;0.70;;
52642;SDS011;38531;53.296;6.614;2022-12-07T17:05:44;4.25;;;0.60;;
52642;SDS011;38531;53.296;6.614;2022-12-07T17:10:47;1.10;;;0.45;;
52642;SDS011;38531;53.296;6.614;2022-12-07T17:13:13;0.82;;;0.47;;
52642;SDS011;38531;53.296;6.614;2022-12-07T17:16:03;1.08;;;0.45;;
52642;SDS011;38531;53.296;6.614;2022-12-07T17:18:32;1.35;;;0.30;;
52642;SDS011;38531;53.296;6.614;2022-12-07T17:21:05;0.55;;;0.40;;
52642;SDS011;38531;53.296;6.614;2022-12-07T17:23:32;0.68;;;0.35;;